sensor_id;sensor_type;location;lat;lon;timestamp;P1;durP1;ratioP1;P2;durP2;ratioP2
48524;SDS011;34316;51.514;-0.178;2023-03-05T00:01:49;30.50;;;17.50;;
48524;SDS011;34316;51.514;-0.178;2023-03-05T00:03:51;26.52;;;16.17;;
48524;SDS011;34316;51.514;-0.178;2023-03-05T00:05:57;29.15;;;17.85;;
48524;SDS011;34316;51.514;-0.178;2023-03-05T00:07:59;31.02;;;16.80;;
48524;SDS011;34316;51.514;-0.178;2023-03-05T00:10:03;30.70;;;17.88;;
48524;SDS011;34316;51.514;-0.178;2023-03-05T00:12:06;28.92;;;16.90;;
48524;SDS011;34316;51.514;-0.178;2023-03-05T00:14:08;26.00;;;16.30;;
48524;SDS011;34316;51.514;-0.178;2023-03-05T00:16:14;29.05;;;16.95;;
48524;SDS011;34316;51.514;-0.178;2023-03-05T00:18:16;29.73;;;17.27;;
48524;SDS011;34316;51.514;-0.178;2023-03-05T00:20:17;28.25;;;16.50;;
48524;SDS011;34316;51.514;-0.178;2023-03-05T00:22:19;28.27;;;16.80;;
48524;SDS011;34316;51.514;-0.178;2023-03-05T00:24:21;29.67;;;15.57;;
48524;SDS011;34316;51.514;-0.178;2023-03-05T00:26:23;27.23;;;17.60;;
48524;SDS011;34316;51.514;-0.178;2023-03-05T00:28:26;30.27;;;16.23;;
48524;SDS011;34316;51.514;-0.178;2023-03-05T00:30:27;28.25;;;15.95;;
48524;SDS011;34316;51.514;-0.178;2023-03-05T00:32:29;27.30;;;16.77;;
48524;SDS011;34316;51.514;-0.178;2023-03-05T00:34:31;28.40;;;16.70;;
48524;SDS011;34316;51.514;-0.178;2023-03-05T00:36:32;27.52;;;17.02;;
48524;SDS011;34316;51.514;-0.178;2023-03-05T00:38:38;28.63;;;16.38;;
48524;SDS011;34316;51.514;-0.178;2023-03-05T00:40:43;31.45;;;16.10;;
48524;SDS011;34316;51.514;-0.178;2023-03-05T00:42:48;27.23;;;14.95;;
48524;SDS011;34316;51.514;-0.178;2023-03-05T00:44:49;26.20;;;16.10;;
48524;SDS011;34316;51.514;-0.178;2023-03-05T00:46:51;24.98;;;14.95;;
48524;SDS011;34316;51.514;-0.178;2023-03-05T00:48:53;28.17;;;15.98;;
48524;SDS011;34316;51.514;-0.178;2023-03-05T00:50:55;25.70;;;15.25;;
48524;SDS011;34316;51.514;-0.178;2023-03-05T00:52:57;23.40;;;14.65;;
48524;SDS011;34316;51.514;-0.178;2023-03-05T00:54:59;24.80;;;15.73;;
48524;SDS011;34316;51.514;-0.178;2023-03-05T00:57:00;32.70;;;16.17;;
48524;SDS011;34316;51.514;-0.178;2023-03-05T00:59:02;28.67;;;16.85;;
48524;SDS011;34316;51.514;-0.178;2023-03-05T01:01:04;26.58;;;15.40;;
48524;SDS011;34316;51.514;-0.178;2023-03-05T01:03:06;25.70;;;16.63;;
48524;SDS011;34316;51.514;-0.178;2023-03-05T01:05:11;29.55;;;16.42;;
48524;SDS011;34316;51.514;-0.178;2023-03-05T01:07:14;30.88;;;16.08;;
48524;SDS011;34316;51.514;-0.178;2023-03-05T01:09:15;27.13;;;16.25;;
48524;SDS011;34316;51.514;-0.178;2023-03-05T01:11:17;28.15;;;15.80;;
48524;SDS011;34316;51.514;-0.178;2023-03-05T01:13:22;22.40;;;14.52;;
48524;SDS011;34316;51.514;-0.178;2023-03-05T01:15:24;23.63;;;14.98;;
48524;SDS011;34316;51.514;-0.178;2023-03-05T01:17:25;23.15;;;14.93;;
48524;SDS011;34316;51.514;-0.178;2023-03-05T01:19:27;27.55;;;15.43;;
48524;SDS011;34316;51.514;-0.178;2023-03-05T01:21:35;25.83;;;15.35;;
48524;SDS011;34316;51.514;-0.178;2023-03-05T01:23:37;25.52;;;14.55;;
48524;SDS011;34316;51.514;-0.178;2023-03-05T01:25:39;28.00;;;16.25;;
48524;SDS011;34316;51.514;-0.178;2023-03-05T01:27:40;24.88;;;14.65;;
48524;SDS011;34316;51.514;-0.178;2023-03-05T01:29:42;23.05;;;15.02;;
48524;SDS011;34316;51.514;-0.178;2023-03-05T01:31:47;23.20;;;15.63;;
48524;SDS011;34316;51.514;-0.178;2023-03-05T01:33:52;28.02;;;15.00;;
48524;SDS011;34316;51.514;-0.178;2023-03-05T01:35:54;25.55;;;15.80;;
48524;SDS011;34316;51.514;-0.178;2023-03-05T01:37:56;27.40;;;15.68;;
48524;SDS011;34316;51.514;-0.178;2023-03-05T01:39:57;25.48;;;15.15;;
48524;SDS011;34316;51.514;-0.178;2023-03-05T01:41:59;24.63;;;15.57;;
48524;SDS011;34316;51.514;-0.178;2023-03-05T01:44:01;25.98;;;15.38;;
48524;SDS011;34316;51.514;-0.178;2023-03-05T01:48:16;25.67;;;15.27;;
48524;SDS011;34316;51.514;-0.178;2023-03-05T01:50:19;21.52;;;13.93;;
48524;SDS011;34316;51.514;-0.178;2023-03-05T01:52:23;25.63;;;14.13;;
48524;SDS011;34316;51.514;-0.178;2023-03-05T01:54:48;25.30;;;15.60;;
48524;SDS011;34316;51.514;-0.178;2023-03-05T01:56:48;28.27;;;15.10;;
48524;SDS011;34316;51.514;-0.178;2023-03-05T01:58:50;29.67;;;16.73;;
48524;SDS011;34316;51.514;-0.178;2023-03-05T02:00:52;23.75;;;14.35;;
48524;SDS011;34316;51.514;-0.178;2023-03-05T02:02:55;25.47;;;15.50;;
48524;SDS011;34316;51.514;-0.178;2023-03-05T02:04:59;28.17;;;15.95;;
48524;SDS011;34316;51.514;-0.178;2023-03-05T02:07:03;24.40;;;15.63;;
48524;SDS011;34316;51.514;-0.178;2023-03-05T02:09:05;28.98;;;16.45;;
48524;SDS011;34316;51.514;-0.178;2023-03-05T02:11:10;28.90;;;16.00;;
48524;SDS011;34316;51.514;-0.178;2023-03-05T02:13:13;25.92;;;14.95;;
48524;SDS011;34316;51.514;-0.178;2023-03-05T02:15:17;22.45;;;14.82;;
48524;SDS011;34316;51.514;-0.178;2023-03-05T02:17:19;26.55;;;15.30;;
48524;SDS011;34316;51.514;-0.178;2023-03-05T02:19:21;25.58;;;15.27;;
48524;SDS011;34316;51.514;-0.178;2023-03-05T02:21:26;24.92;;;14.57;;
48524;SDS011;34316;51.514;-0.178;2023-03-05T02:23:31;24.40;;;15.55;;
48524;SDS011;34316;51.514;-0.178;2023-03-05T02:25:36;29.15;;;15.32;;
48524;SDS011;34316;51.514;-0.178;2023-03-05T02:27:38;25.23;;;15.07;;
48524;SDS011;34316;51.514;-0.178;2023-03-05T02:29:45;26.98;;;15.98;;
48524;SDS011;34316;51.514;-0.178;2023-03-05T02:31:46;25.00;;;15.32;;
48524;SDS011;34316;51.514;-0.178;2023-03-05T02:33:48;25.08;;;15.70;;
48524;SDS011;34316;51.514;-0.178;2023-03-05T02:35:50;26.90;;;15.60;;
48524;SDS011;34316;51.514;-0.178;2023-03-05T02:37:52;23.35;;;14.45;;
48524;SDS011;34316;51.514;-0.178;2023-03-05T02:39:54;27.77;;;16.02;;
48524;SDS011;34316;51.514;-0.178;2023-03-05T02:41:55;25.77;;;16.90;;
48524;SDS011;34316;51.514;-0.178;2023-03-05T02:43:57;29.65;;;17.13;;
48524;SDS011;34316;51.514;-0.178;2023-03-05T02:45:59;30.40;;;16.42;;
48524;SDS011;34316;51.514;-0.178;2023-03-05T02:48:01;30.38;;;17.50;;
48524;SDS011;34316;51.514;-0.178;2023-03-05T02:50:03;31.73;;;17.38;;
48524;SDS011;34316;51.514;-0.178;2023-03-05T02:52:05;26.45;;;16.85;;
48524;SDS011;34316;51.514;-0.178;2023-03-05T02:54:07;27.02;;;16.70;;
48524;SDS011;34316;51.514;-0.178;2023-03-05T02:56:09;27.58;;;17.60;;
48524;SDS011;34316;51.514;-0.178;2023-03-05T02:58:11;27.77;;;17.75;;
48524;SDS011;34316;51.514;-0.178;2023-03-05T03:00:12;31.98;;;19.38;;
48524;SDS011;34316;51.514;-0.178;2023-03-05T03:02:15;32.33;;;19.35;;
48524;SDS011;34316;51.514;-0.178;2023-03-05T03:04:17;32.05;;;18.65;;
48524;SDS011;34316;51.514;-0.178;2023-03-05T03:06:21;30.10;;;18.60;;
48524;SDS011;34316;51.514;-0.178;2023-03-05T03:08:23;29.40;;;18.40;;
48524;SDS011;34316;51.514;-0.178;2023-03-05T03:10:25;32.63;;;18.05;;
48524;SDS011;34316;51.514;-0.178;2023-03-05T03:12:26;35.25;;;18.48;;
48524;SDS011;34316;51.514;-0.178;2023-03-05T03:14:34;33.05;;;18.25;;
48524;SDS011;34316;51.514;-0.178;2023-03-05T03:16:39;32.00;;;19.95;;
48524;SDS011;34316;51.514;-0.178;2023-03-05T03:18:41;33.15;;;20.48;;
48524;SDS011;34316;51.514;-0.178;2023-03-05T03:20:43;35.95;;;19.77;;
48524;SDS011;34316;51.514;-0.178;2023-03-05T03:22:45;32.40;;;19.75;;
48524;SDS011;34316;51.514;-0.178;2023-03-05T03:24:52;31.42;;;19.70;;
48524;SDS011;34316;51.514;-0.178;2023-03-05T03:26:54;33.90;;;19.25;;
48524;SDS011;34316;51.514;-0.178;2023-03-05T03:28:56;30.50;;;18.63;;
48524;SDS011;34316;51.514;-0.178;2023-03-05T03:30:58;31.88;;;17.88;;
48524;SDS011;34316;51.514;-0.178;2023-03-05T03:32:59;30.38;;;18.05;;
48524;SDS011;34316;51.514;-0.178;2023-03-05T03:35:01;30.92;;;18.88;;
48524;SDS011;34316;51.514;-0.178;2023-03-05T03:37:03;30.77;;;19.58;;
48524;SDS011;34316;51.514;-0.178;2023-03-05T03:39:05;40.25;;;19.95;;
48524;SDS011;34316;51.514;-0.178;2023-03-05T03:41:07;37.00;;;20.00;;
48524;SDS011;34316;51.514;-0.178;2023-03-05T03:43:09;32.17;;;18.52;;
48524;SDS011;34316;51.514;-0.178;2023-03-05T03:45:10;35.83;;;19.60;;
48524;SDS011;34316;51.514;-0.178;2023-03-05T03:47:13;36.65;;;18.80;;
48524;SDS011;34316;51.514;-0.178;2023-03-05T03:49:15;35.67;;;19.90;;
48524;SDS011;34316;51.514;-0.178;2023-03-05T03:51:19;34.00;;;19.73;;
48524;SDS011;34316;51.514;-0.178;2023-03-05T03:53:21;29.40;;;19.95;;
48524;SDS011;34316;51.514;-0.178;2023-03-05T03:55:22;37.33;;;21.80;;
48524;SDS011;34316;51.514;-0.178;2023-03-05T03:57:28;36.28;;;20.25;;
48524;SDS011;34316;51.514;-0.178;2023-03-05T03:59:30;39.33;;;21.17;;
48524;SDS011;34316;51.514;-0.178;2023-03-05T04:01:31;37.72;;;20.75;;
48524;SDS011;34316;51.514;-0.178;2023-03-05T04:03:33;34.42;;;20.40;;
48524;SDS011;34316;51.514;-0.178;2023-03-05T04:05:35;36.30;;;20.48;;
48524;SDS011;34316;51.514;-0.178;2023-03-05T04:07:41;33.50;;;19.65;;
48524;SDS011;34316;51.514;-0.178;2023-03-05T04:09:43;36.15;;;21.48;;
48524;SDS011;34316;51.514;-0.178;2023-03-05T04:11:44;37.92;;;21.75;;
48524;SDS011;34316;51.514;-0.178;2023-03-05T04:13:46;40.85;;;23.17;;
48524;SDS011;34316;51.514;-0.178;2023-03-05T04:15:48;33.05;;;19.40;;
48524;SDS011;34316;51.514;-0.178;2023-03-05T04:17:53;37.35;;;22.13;;
48524;SDS011;34316;51.514;-0.178;2023-03-05T04:19:55;37.33;;;23.00;;
48524;SDS011;34316;51.514;-0.178;2023-03-05T04:21:57;33.90;;;22.35;;
48524;SDS011;34316;51.514;-0.178;2023-03-05T04:23:59;37.03;;;22.60;;
48524;SDS011;34316;51.514;-0.178;2023-03-05T04:26:00;38.00;;;21.17;;
48524;SDS011;34316;51.514;-0.178;2023-03-05T04:28:02;36.05;;;22.25;;
48524;SDS011;34316;51.514;-0.178;2023-03-05T04:30:04;34.58;;;20.92;;
48524;SDS011;34316;51.514;-0.178;2023-03-05T04:32:06;34.22;;;19.30;;
48524;SDS011;34316;51.514;-0.178;2023-03-05T04:34:08;37.55;;;21.52;;
48524;SDS011;34316;51.514;-0.178;2023-03-05T04:36:10;33.55;;;19.77;;
48524;SDS011;34316;51.514;-0.178;2023-03-05T04:38:12;30.52;;;19.92;;
48524;SDS011;34316;51.514;-0.178;2023-03-05T04:40:14;31.75;;;20.17;;
48524;SDS011;34316;51.514;-0.178;2023-03-05T04:42:15;32.83;;;19.27;;
48524;SDS011;34316;51.514;-0.178;2023-03-05T04:44:18;33.28;;;19.13;;
48524;SDS011;34316;51.514;-0.178;2023-03-05T04:46:20;31.90;;;19.48;;
48524;SDS011;34316;51.514;-0.178;2023-03-05T04:48:21;32.67;;;20.27;;
48524;SDS011;34316;51.514;-0.178;2023-03-05T04:50:23;37.03;;;20.42;;
48524;SDS011;34316;51.514;-0.178;2023-03-05T04:52:25;36.97;;;19.42;;
48524;SDS011;34316;51.514;-0.178;2023-03-05T04:54:27;30.42;;;19.00;;
48524;SDS011;34316;51.514;-0.178;2023-03-05T04:56:28;33.95;;;19.52;;
48524;SDS011;34316;51.514;-0.178;2023-03-05T04:58:30;34.00;;;19.42;;
48524;SDS011;34316;51.514;-0.178;2023-03-05T05:00:32;27.63;;;18.17;;
48524;SDS011;34316;51.514;-0.178;2023-03-05T05:02:33;32.13;;;18.65;;
48524;SDS011;34316;51.514;-0.178;2023-03-05T05:04:35;32.65;;;17.88;;
48524;SDS011;34316;51.514;-0.178;2023-03-05T05:06:36;30.20;;;18.20;;
48524;SDS011;34316;51.514;-0.178;2023-03-05T05:08:38;29.88;;;19.23;;
48524;SDS011;34316;51.514;-0.178;2023-03-05T05:10:40;32.63;;;19.10;;
48524;SDS011;34316;51.514;-0.178;2023-03-05T05:12:41;29.33;;;18.23;;
48524;SDS011;34316;51.514;-0.178;2023-03-05T05:14:43;31.08;;;17.02;;
48524;SDS011;34316;51.514;-0.178;2023-03-05T05:16:45;34.85;;;19.65;;
48524;SDS011;34316;51.514;-0.178;2023-03-05T05:18:46;27.50;;;17.45;;
48524;SDS011;34316;51.514;-0.178;2023-03-05T05:20:48;31.55;;;18.15;;
48524;SDS011;34316;51.514;-0.178;2023-03-05T05:22:50;29.08;;;18.42;;
48524;SDS011;34316;51.514;-0.178;2023-03-05T05:24:51;31.92;;;18.20;;
48524;SDS011;34316;51.514;-0.178;2023-03-05T05:26:53;28.23;;;16.80;;
48524;SDS011;34316;51.514;-0.178;2023-03-05T05:28:55;31.52;;;17.50;;
48524;SDS011;34316;51.514;-0.178;2023-03-05T05:30:57;28.60;;;16.50;;
48524;SDS011;34316;51.514;-0.178;2023-03-05T05:32:59;31.52;;;17.02;;
48524;SDS011;34316;51.514;-0.178;2023-03-05T05:35:00;30.13;;;17.67;;
48524;SDS011;34316;51.514;-0.178;2023-03-05T05:37:05;29.98;;;18.20;;
48524;SDS011;34316;51.514;-0.178;2023-03-05T05:39:10;35.40;;;17.92;;
48524;SDS011;34316;51.514;-0.178;2023-03-05T05:41:13;30.42;;;17.83;;
48524;SDS011;34316;51.514;-0.178;2023-03-05T05:43:15;28.10;;;17.63;;
48524;SDS011;34316;51.514;-0.178;2023-03-05T05:45:17;30.98;;;16.00;;
48524;SDS011;34316;51.514;-0.178;2023-03-05T05:47:19;24.90;;;15.65;;
48524;SDS011;34316;51.514;-0.178;2023-03-05T05:49:21;27.27;;;16.48;;
48524;SDS011;34316;51.514;-0.178;2023-03-05T05:51:22;29.60;;;17.10;;
48524;SDS011;34316;51.514;-0.178;2023-03-05T05:53:24;31.67;;;17.25;;
48524;SDS011;34316;51.514;-0.178;2023-03-05T05:55:26;27.40;;;15.60;;
48524;SDS011;34316;51.514;-0.178;2023-03-05T05:57:28;27.38;;;14.50;;
48524;SDS011;34316;51.514;-0.178;2023-03-05T05:59:29;27.15;;;15.48;;
48524;SDS011;34316;51.514;-0.178;2023-03-05T06:01:32;27.85;;;16.58;;
48524;SDS011;34316;51.514;-0.178;2023-03-05T06:03:34;29.70;;;16.63;;
48524;SDS011;34316;51.514;-0.178;2023-03-05T06:05:36;30.67;;;16.13;;
48524;SDS011;34316;51.514;-0.178;2023-03-05T06:07:37;26.95;;;14.13;;
48524;SDS011;34316;51.514;-0.178;2023-03-05T06:09:39;27.58;;;16.60;;
48524;SDS011;34316;51.514;-0.178;2023-03-05T06:11:40;27.00;;;14.73;;
48524;SDS011;34316;51.514;-0.178;2023-03-05T06:13:42;28.48;;;14.95;;
48524;SDS011;34316;51.514;-0.178;2023-03-05T06:15:44;23.13;;;14.40;;
48524;SDS011;34316;51.514;-0.178;2023-03-05T06:17:49;25.27;;;15.40;;
48524;SDS011;34316;51.514;-0.178;2023-03-05T06:19:53;24.35;;;13.40;;
48524;SDS011;34316;51.514;-0.178;2023-03-05T06:23:56;25.15;;;14.65;;
48524;SDS011;34316;51.514;-0.178;2023-03-05T06:26:02;22.60;;;14.50;;
48524;SDS011;34316;51.514;-0.178;2023-03-05T06:28:05;25.77;;;15.85;;
48524;SDS011;34316;51.514;-0.178;2023-03-05T06:30:07;31.98;;;14.55;;
48524;SDS011;34316;51.514;-0.178;2023-03-05T06:34:12;26.83;;;14.15;;
48524;SDS011;34316;51.514;-0.178;2023-03-05T06:36:14;28.73;;;15.82;;
48524;SDS011;34316;51.514;-0.178;2023-03-05T06:38:17;22.92;;;14.02;;
48524;SDS011;34316;51.514;-0.178;2023-03-05T06:40:19;24.02;;;13.70;;
48524;SDS011;34316;51.514;-0.178;2023-03-05T06:42:21;24.02;;;13.35;;
48524;SDS011;34316;51.514;-0.178;2023-03-05T06:44:22;27.58;;;15.30;;
48524;SDS011;34316;51.514;-0.178;2023-03-05T06:46:25;27.88;;;15.25;;
48524;SDS011;34316;51.514;-0.178;2023-03-05T06:48:28;23.00;;;12.43;;
48524;SDS011;34316;51.514;-0.178;2023-03-05T06:50:33;26.75;;;13.68;;
48524;SDS011;34316;51.514;-0.178;2023-03-05T06:52:35;25.20;;;14.38;;
48524;SDS011;34316;51.514;-0.178;2023-03-05T06:54:39;24.92;;;14.57;;
48524;SDS011;34316;51.514;-0.178;2023-03-05T06:56:42;25.55;;;13.25;;
48524;SDS011;34316;51.514;-0.178;2023-03-05T06:59:03;22.67;;;13.10;;
48524;SDS011;34316;51.514;-0.178;2023-03-05T07:01:05;23.52;;;14.43;;
48524;SDS011;34316;51.514;-0.178;2023-03-05T07:03:07;25.40;;;14.52;;
48524;SDS011;34316;51.514;-0.178;2023-03-05T07:05:09;23.77;;;13.23;;
48524;SDS011;34316;51.514;-0.178;2023-03-05T07:07:11;25.52;;;13.05;;
48524;SDS011;34316;51.514;-0.178;2023-03-05T07:09:13;24.52;;;13.15;;
48524;SDS011;34316;51.514;-0.178;2023-03-05T07:11:16;22.70;;;13.80;;
48524;SDS011;34316;51.514;-0.178;2023-03-05T07:13:19;21.83;;;14.02;;
48524;SDS011;34316;51.514;-0.178;2023-03-05T07:15:21;22.25;;;13.05;;
48524;SDS011;34316;51.514;-0.178;2023-03-05T07:17:23;26.80;;;13.07;;
48524;SDS011;34316;51.514;-0.178;2023-03-05T07:19:24;29.65;;;14.43;;
48524;SDS011;34316;51.514;-0.178;2023-03-05T07:21:26;25.63;;;14.45;;
48524;SDS011;34316;51.514;-0.178;2023-03-05T07:25:31;26.42;;;15.02;;
48524;SDS011;34316;51.514;-0.178;2023-03-05T07:27:36;29.15;;;15.30;;
48524;SDS011;34316;51.514;-0.178;2023-03-05T07:29:38;30.15;;;14.85;;
48524;SDS011;34316;51.514;-0.178;2023-03-05T07:31:40;26.67;;;14.98;;
48524;SDS011;34316;51.514;-0.178;2023-03-05T07:33:42;24.90;;;15.70;;
48524;SDS011;34316;51.514;-0.178;2023-03-05T07:35:43;28.13;;;15.95;;
48524;SDS011;34316;51.514;-0.178;2023-03-05T07:37:45;26.90;;;15.90;;
48524;SDS011;34316;51.514;-0.178;2023-03-05T07:39:47;28.38;;;16.15;;
48524;SDS011;34316;51.514;-0.178;2023-03-05T07:41:49;28.10;;;15.10;;
48524;SDS011;34316;51.514;-0.178;2023-03-05T07:43:52;29.52;;;16.63;;
48524;SDS011;34316;51.514;-0.178;2023-03-05T07:45:54;30.52;;;17.35;;
48524;SDS011;34316;51.514;-0.178;2023-03-05T07:47:56;34.55;;;17.73;;
48524;SDS011;34316;51.514;-0.178;2023-03-05T07:49:57;33.30;;;17.92;;
48524;SDS011;34316;51.514;-0.178;2023-03-05T07:51:59;29.60;;;17.67;;
48524;SDS011;34316;51.514;-0.178;2023-03-05T07:54:01;29.73;;;17.70;;
48524;SDS011;34316;51.514;-0.178;2023-03-05T07:56:06;34.47;;;19.25;;
48524;SDS011;34316;51.514;-0.178;2023-03-05T07:58:08;29.55;;;18.02;;
48524;SDS011;34316;51.514;-0.178;2023-03-05T08:00:10;34.42;;;18.13;;
48524;SDS011;34316;51.514;-0.178;2023-03-05T08:02:12;32.33;;;18.02;;
48524;SDS011;34316;51.514;-0.178;2023-03-05T08:04:14;33.92;;;18.33;;
48524;SDS011;34316;51.514;-0.178;2023-03-05T08:06:16;35.33;;;17.95;;
48524;SDS011;34316;51.514;-0.178;2023-03-05T08:08:18;39.50;;;19.30;;
48524;SDS011;34316;51.514;-0.178;2023-03-05T08:10:19;31.65;;;17.50;;
48524;SDS011;34316;51.514;-0.178;2023-03-05T08:12:21;33.33;;;17.90;;
48524;SDS011;34316;51.514;-0.178;2023-03-05T08:14:23;32.03;;;18.25;;
48524;SDS011;34316;51.514;-0.178;2023-03-05T08:16:25;31.17;;;17.80;;
48524;SDS011;34316;51.514;-0.178;2023-03-05T08:18:31;33.08;;;18.08;;
48524;SDS011;34316;51.514;-0.178;2023-03-05T08:20:34;34.08;;;18.55;;
48524;SDS011;34316;51.514;-0.178;2023-03-05T08:22:36;33.97;;;18.23;;
48524;SDS011;34316;51.514;-0.178;2023-03-05T08:24:38;35.63;;;18.50;;
48524;SDS011;34316;51.514;-0.178;2023-03-05T08:26:40;31.70;;;18.30;;
48524;SDS011;34316;51.514;-0.178;2023-03-05T08:28:42;33.33;;;17.15;;
48524;SDS011;34316;51.514;-0.178;2023-03-05T08:30:47;32.95;;;18.17;;
48524;SDS011;34316;51.514;-0.178;2023-03-05T08:32:49;29.90;;;18.30;;
48524;SDS011;34316;51.514;-0.178;2023-03-05T08:34:54;34.08;;;19.08;;
48524;SDS011;34316;51.514;-0.178;2023-03-05T08:36:58;29.23;;;17.58;;
48524;SDS011;34316;51.514;-0.178;2023-03-05T08:38:59;29.70;;;18.38;;
48524;SDS011;34316;51.514;-0.178;2023-03-05T08:41:01;32.15;;;18.52;;
48524;SDS011;34316;51.514;-0.178;2023-03-05T08:43:03;36.00;;;19.35;;
48524;SDS011;34316;51.514;-0.178;2023-03-05T08:45:07;30.35;;;17.75;;
48524;SDS011;34316;51.514;-0.178;2023-03-05T08:47:09;32.25;;;18.92;;
48524;SDS011;34316;51.514;-0.178;2023-03-05T08:49:17;30.98;;;17.35;;
48524;SDS011;34316;51.514;-0.178;2023-03-05T08:51:22;35.13;;;19.10;;
48524;SDS011;34316;51.514;-0.178;2023-03-05T08:53:26;31.55;;;17.45;;
48524;SDS011;34316;51.514;-0.178;2023-03-05T08:55:27;37.30;;;18.27;;
48524;SDS011;34316;51.514;-0.178;2023-03-05T08:57:29;27.70;;;16.75;;
48524;SDS011;34316;51.514;-0.178;2023-03-05T08:59:30;29.55;;;19.05;;
48524;SDS011;34316;51.514;-0.178;2023-03-05T09:01:32;27.00;;;16.65;;
48524;SDS011;34316;51.514;-0.178;2023-03-05T09:03:34;30.13;;;18.10;;
48524;SDS011;34316;51.514;-0.178;2023-03-05T09:05:36;29.48;;;17.83;;
48524;SDS011;34316;51.514;-0.178;2023-03-05T09:07:39;27.63;;;17.63;;
48524;SDS011;34316;51.514;-0.178;2023-03-05T09:09:40;28.23;;;16.27;;
48524;SDS011;34316;51.514;-0.178;2023-03-05T09:11:45;28.42;;;17.73;;
48524;SDS011;34316;51.514;-0.178;2023-03-05T09:13:47;28.48;;;17.00;;
48524;SDS011;34316;51.514;-0.178;2023-03-05T09:15:59;30.83;;;16.98;;
48524;SDS011;34316;51.514;-0.178;2023-03-05T09:18:01;27.85;;;16.17;;
48524;SDS011;34316;51.514;-0.178;2023-03-05T09:20:04;29.10;;;17.42;;
48524;SDS011;34316;51.514;-0.178;2023-03-05T09:22:06;32.08;;;17.10;;
48524;SDS011;34316;51.514;-0.178;2023-03-05T09:24:08;27.85;;;16.38;;
48524;SDS011;34316;51.514;-0.178;2023-03-05T09:26:10;31.30;;;16.40;;
48524;SDS011;34316;51.514;-0.178;2023-03-05T09:28:13;28.88;;;16.23;;
48524;SDS011;34316;51.514;-0.178;2023-03-05T09:30:15;27.20;;;16.63;;
48524;SDS011;34316;51.514;-0.178;2023-03-05T09:32:17;26.70;;;14.95;;
48524;SDS011;34316;51.514;-0.178;2023-03-05T09:34:19;27.05;;;15.70;;
48524;SDS011;34316;51.514;-0.178;2023-03-05T09:36:22;26.33;;;15.75;;
48524;SDS011;34316;51.514;-0.178;2023-03-05T09:38:26;30.92;;;15.88;;
48524;SDS011;34316;51.514;-0.178;2023-03-05T09:40:52;28.42;;;15.85;;
48524;SDS011;34316;51.514;-0.178;2023-03-05T09:51:49;23.63;;;14.57;;
48524;SDS011;34316;51.514;-0.178;2023-03-05T09:54:11;25.58;;;14.70;;
48524;SDS011;34316;51.514;-0.178;2023-03-05T09:56:27;23.43;;;13.93;;
48524;SDS011;34316;51.514;-0.178;2023-03-05T09:58:36;23.60;;;13.02;;
48524;SDS011;34316;51.514;-0.178;2023-03-05T10:00:40;20.92;;;13.38;;
48524;SDS011;34316;51.514;-0.178;2023-03-05T10:02:47;24.38;;;14.07;;
48524;SDS011;34316;51.514;-0.178;2023-03-05T10:05:11;21.90;;;13.57;;
48524;SDS011;34316;51.514;-0.178;2023-03-05T10:09:43;22.38;;;14.00;;
48524;SDS011;34316;51.514;-0.178;2023-03-05T10:13:59;28.05;;;14.02;;
48524;SDS011;34316;51.514;-0.178;2023-03-05T10:21:38;23.27;;;14.38;;
48524;SDS011;34316;51.514;-0.178;2023-03-05T10:23:27;24.38;;;14.35;;
48524;SDS011;34316;51.514;-0.178;2023-03-05T10:28:01;24.90;;;15.55;;
48524;SDS011;34316;51.514;-0.178;2023-03-05T10:32:52;24.58;;;13.73;;
48524;SDS011;34316;51.514;-0.178;2023-03-05T10:40:04;19.88;;;11.50;;
48524;SDS011;34316;51.514;-0.178;2023-03-05T10:42:29;21.55;;;12.40;;
48524;SDS011;34316;51.514;-0.178;2023-03-05T10:44:43;22.02;;;12.50;;
48524;SDS011;34316;51.514;-0.178;2023-03-05T10:46:48;23.50;;;13.35;;
48524;SDS011;34316;51.514;-0.178;2023-03-05T10:48:54;22.70;;;12.05;;
48524;SDS011;34316;51.514;-0.178;2023-03-05T10:51:20;19.35;;;11.48;;
48524;SDS011;34316;51.514;-0.178;2023-03-05T10:53:26;20.27;;;11.65;;
48524;SDS011;34316;51.514;-0.178;2023-03-05T10:55:29;16.52;;;10.60;;
48524;SDS011;34316;51.514;-0.178;2023-03-05T10:57:31;20.27;;;11.25;;
48524;SDS011;34316;51.514;-0.178;2023-03-05T10:59:32;19.35;;;11.50;;
48524;SDS011;34316;51.514;-0.178;2023-03-05T11:01:34;18.67;;;12.30;;
48524;SDS011;34316;51.514;-0.178;2023-03-05T11:05:59;19.20;;;12.43;;
48524;SDS011;34316;51.514;-0.178;2023-03-05T11:10:24;17.90;;;11.85;;
48524;SDS011;34316;51.514;-0.178;2023-03-05T11:12:26;19.38;;;12.00;;
48524;SDS011;34316;51.514;-0.178;2023-03-05T11:14:29;17.88;;;12.07;;
48524;SDS011;34316;51.514;-0.178;2023-03-05T11:16:34;20.38;;;12.70;;
48524;SDS011;34316;51.514;-0.178;2023-03-05T11:18:47;19.02;;;12.25;;
48524;SDS011;34316;51.514;-0.178;2023-03-05T11:20:49;24.02;;;13.07;;
48524;SDS011;34316;51.514;-0.178;2023-03-05T11:25:16;21.60;;;13.18;;
48524;SDS011;34316;51.514;-0.178;2023-03-05T11:27:32;22.33;;;12.20;;
48524;SDS011;34316;51.514;-0.178;2023-03-05T11:29:36;20.73;;;12.02;;
48524;SDS011;34316;51.514;-0.178;2023-03-05T11:31:48;21.60;;;12.20;;
48524;SDS011;34316;51.514;-0.178;2023-03-05T11:34:04;20.60;;;11.80;;
48524;SDS011;34316;51.514;-0.178;2023-03-05T11:36:16;18.65;;;12.57;;
48524;SDS011;34316;51.514;-0.178;2023-03-05T11:38:24;21.35;;;12.90;;
48524;SDS011;34316;51.514;-0.178;2023-03-05T11:40:28;20.05;;;12.05;;
48524;SDS011;34316;51.514;-0.178;2023-03-05T11:42:31;18.27;;;12.40;;
48524;SDS011;34316;51.514;-0.178;2023-03-05T11:44:36;22.23;;;12.70;;
48524;SDS011;34316;51.514;-0.178;2023-03-05T11:46:45;20.42;;;12.50;;
48524;SDS011;34316;51.514;-0.178;2023-03-05T11:48:48;21.20;;;12.68;;
48524;SDS011;34316;51.514;-0.178;2023-03-05T11:50:52;16.55;;;11.40;;
48524;SDS011;34316;51.514;-0.178;2023-03-05T11:55:44;19.20;;;12.05;;
48524;SDS011;34316;51.514;-0.178;2023-03-05T11:58:00;20.35;;;11.38;;
48524;SDS011;34316;51.514;-0.178;2023-03-05T12:00:07;20.83;;;12.13;;
48524;SDS011;34316;51.514;-0.178;2023-03-05T12:02:32;21.17;;;12.27;;
48524;SDS011;34316;51.514;-0.178;2023-03-05T12:04:34;23.73;;;10.93;;
48524;SDS011;34316;51.514;-0.178;2023-03-05T12:08:44;21.15;;;11.75;;
48524;SDS011;34316;51.514;-0.178;2023-03-05T12:10:49;15.32;;;10.75;;
48524;SDS011;34316;51.514;-0.178;2023-03-05T12:13:10;17.45;;;10.07;;
48524;SDS011;34316;51.514;-0.178;2023-03-05T12:15:37;17.25;;;11.45;;
48524;SDS011;34316;51.514;-0.178;2023-03-05T12:17:52;19.40;;;12.13;;
48524;SDS011;34316;51.514;-0.178;2023-03-05T12:19:57;18.95;;;12.02;;
48524;SDS011;34316;51.514;-0.178;2023-03-05T12:22:20;20.92;;;11.98;;
48524;SDS011;34316;51.514;-0.178;2023-03-05T12:29:04;21.10;;;11.85;;
48524;SDS011;34316;51.514;-0.178;2023-03-05T12:33:30;17.60;;;11.52;;
48524;SDS011;34316;51.514;-0.178;2023-03-05T12:35:39;17.05;;;9.90;;
48524;SDS011;34316;51.514;-0.178;2023-03-05T12:39:50;17.50;;;10.85;;
48524;SDS011;34316;51.514;-0.178;2023-03-05T12:41:58;19.63;;;11.25;;
48524;SDS011;34316;51.514;-0.178;2023-03-05T12:46:26;17.15;;;10.57;;
48524;SDS011;34316;51.514;-0.178;2023-03-05T12:48:39;17.55;;;10.98;;
48524;SDS011;34316;51.514;-0.178;2023-03-05T12:52:45;19.88;;;12.38;;
48524;SDS011;34316;51.514;-0.178;2023-03-05T12:54:54;15.35;;;10.85;;
48524;SDS011;34316;51.514;-0.178;2023-03-05T12:57:05;18.13;;;11.23;;